Time;durP1;ratioP1;P1;durP2;ratioP2;P2;SDS_P1;SDS_P2;PMS_P1;PMS_P2;Temp;Humidity;BMP_temperature;BMP_pressure;BME280_temperature;BME280_humidity;BME280_pressure;Samples;Min_cycle;Max_cycle;Signal;HPM_P1;HPM_P2
2023/06/09 00:01:58;;;;;;;33.13;30.48;;;16.30;99.90;;;;;;5001475;27;20042;-72
2023/06/09 00:04:26;;;;;;;32.17;29.52;;;16.20;99.90;;;;;;5001485;27;20430;-73
2023/06/09 00:06:54;;;;;;;33.75;31.15;;;16.10;99.90;;;;;;4998634;27;20497;-74
2023/06/09 00:09:21;;;;;;;33.53;30.75;;;16.10;99.90;;;;;;5007344;27;20045;-73
2023/06/09 00:11:48;;;;;;;32.85;30.15;;;16.00;99.90;;;;;;4995438;28;20425;-74
2023/06/09 00:14:15;;;;;;;33.33;30.67;;;16.00;99.90;;;;;;5049220;28;20422;-73
2023/06/09 00:16:46;;;;;;;33.70;30.83;;;15.80;99.90;;;;;;4993370;28;20564;-74
2023/06/09 00:19:15;;;;;;;32.13;29.65;;;15.80;99.90;;;;;;5006485;27;20052;-74
2023/06/09 00:21:49;;;;;;;32.65;30.02;;;15.70;99.90;;;;;;5067562;27;20047;-74
2023/06/09 00:24:19;;;;;;;32.72;30.13;;;15.60;99.90;;;;;;5058550;27;20592;-73
2023/06/09 00:26:51;;;;;;;32.30;29.70;;;15.50;99.90;;;;;;5059556;27;20045;-73
2023/06/09 00:29:21;;;;;;;31.70;29.17;;;15.40;99.90;;;;;;4994964;27;20150;-72
2023/06/09 00:31:48;;;;;;;29.65;27.48;;;15.40;99.90;;;;;;5069689;27;20342;-74
2023/06/09 00:34:15;;;;;;;29.90;27.65;;;15.30;99.90;;;;;;5062100;27;20643;-73
2023/06/09 00:36:42;;;;;;;30.30;28.10;;;15.30;99.90;;;;;;4997559;28;20034;-72
2023/06/09 00:39:09;;;;;;;31.33;28.80;;;15.20;99.90;;;;;;5065897;27;20046;-72
2023/06/09 00:41:37;;;;;;;30.55;28.35;;;15.10;99.90;;;;;;4993945;28;20359;-74
2023/06/09 00:44:04;;;;;;;31.77;28.92;;;15.00;99.90;;;;;;5068592;27;20054;-73
2023/06/09 00:46:32;;;;;;;31.73;29.33;;;15.00;99.90;;;;;;5040820;28;20510;-73
2023/06/09 00:48:59;;;;;;;31.48;28.98;;;14.80;99.90;;;;;;5066548;27;20075;-73
2023/06/09 00:51:26;;;;;;;30.77;28.27;;;14.80;99.90;;;;;;4997316;27;20042;-73
2023/06/09 00:53:53;;;;;;;30.67;28.25;;;14.80;99.90;;;;;;5073559;27;20092;-73
2023/06/09 00:56:23;;;;;;;31.88;29.35;;;14.80;99.90;;;;;;5066939;27;20048;-73
2023/06/09 00:58:50;;;;;;;31.38;28.75;;;14.70;99.90;;;;;;5072317;27;20638;-74
2023/06/09 01:01:17;;;;;;;32.13;29.48;;;14.70;99.90;;;;;;4997217;27;20056;-73
2023/06/09 01:03:46;;;;;;;30.48;28.08;;;14.70;99.90;;;;;;5065693;27;20090;-73
2023/06/09 01:06:26;;;;;;;27.52;25.52;;;14.60;99.90;;;;;;5000416;28;20132;-73
2023/06/09 01:09:04;;;;;;;30.15;27.60;;;14.30;99.90;;;;;;4987706;27;20056;-74
2023/06/09 01:11:56;;;;;;;28.52;26.05;;;14.20;99.90;;;;;;5059883;27;20046;-75
2023/06/09 01:14:41;;;;;;;26.55;24.35;;;14.10;99.90;;;;;;5051223;28;20044;-73
2023/06/09 01:17:11;;;;;;;28.15;25.50;;;14.10;99.90;;;;;;5062647;27;20330;-74
2023/06/09 01:19:43;;;;;;;27.48;25.02;;;14.10;99.90;;;;;;5067859;27;20493;-73
2023/06/09 01:22:29;;;;;;;26.67;24.52;;;14.00;99.90;;;;;;5064145;27;20533;-73
2023/06/09 01:25:10;;;;;;;26.73;24.63;;;13.90;99.90;;;;;;5061959;28;20281;-73
2023/06/09 01:27:39;;;;;;;27.13;24.92;;;13.90;99.90;;;;;;5062404;27;20053;-73
2023/06/09 01:30:09;;;;;;;26.55;24.50;;;13.90;99.90;;;;;;5069289;27;20111;-73
2023/06/09 01:32:37;;;;;;;26.77;24.45;;;13.90;99.90;;;;;;5070605;27;20065;-73
2023/06/09 01:35:05;;;;;;;26.88;24.88;;;13.90;99.90;;;;;;5061274;27;20529;-72
2023/06/09 01:37:33;;;;;;;27.77;25.52;;;13.80;99.90;;;;;;5001514;27;20035;-73
2023/06/09 01:40:00;;;;;;;28.02;25.35;;;13.90;99.90;;;;;;5048285;28;20430;-70
2023/06/09 01:42:27;;;;;;;27.90;25.25;;;13.80;99.90;;;;;;5068610;27;20038;-72
2023/06/09 01:44:55;;;;;;;28.23;25.98;;;13.80;99.90;;;;;;5052841;28;20282;-72
2023/06/09 01:47:22;;;;;;;28.67;26.48;;;13.70;99.90;;;;;;5049820;27;20196;-71
2023/06/09 01:50:02;;;;;;;28.95;26.60;;;13.70;99.90;;;;;;5062689;27;20085;-74
2023/06/09 01:52:53;;;;;;;29.75;27.13;;;13.80;99.90;;;;;;5070153;27;20060;-75
2023/06/09 01:55:27;;;;;;;29.55;26.90;;;13.70;99.90;;;;;;5063048;27;20046;-73
2023/06/09 01:57:59;;;;;;;29.05;26.67;;;13.60;99.90;;;;;;5058028;27;20506;-74
2023/06/09 02:00:27;;;;;;;29.42;26.63;;;13.60;99.90;;;;;;5055404;27;20497;-74
2023/06/09 02:02:59;;;;;;;28.63;26.52;;;13.50;99.90;;;;;;4998764;27;20045;-74
2023/06/09 02:05:28;;;;;;;29.10;26.65;;;13.60;99.90;;;;;;5063663;27;20042;-74
2023/06/09 02:07:56;;;;;;;29.92;27.52;;;13.50;99.90;;;;;;5061806;27;20493;-73
2023/06/09 02:10:24;;;;;;;30.27;27.58;;;13.70;99.90;;;;;;5064959;27;20267;-74
2023/06/09 02:12:51;;;;;;;29.60;27.20;;;13.70;99.90;;;;;;5055890;27;20046;-74
2023/06/09 02:15:19;;;;;;;29.95;27.52;;;13.70;99.90;;;;;;4994689;27;20042;-74
2023/06/09 02:17:46;;;;;;;28.58;26.40;;;13.70;99.90;;;;;;5063273;27;20049;-73
2023/06/09 02:20:13;;;;;;;29.42;27.02;;;13.70;99.90;;;;;;4999412;27;20430;-74
2023/06/09 02:22:40;;;;;;;29.02;26.83;;;13.60;99.90;;;;;;5049202;28;20045;-74
2023/06/09 02:25:08;;;;;;;29.17;26.88;;;13.50;99.90;;;;;;5064878;27;20468;-74
2023/06/09 02:27:35;;;;;;;28.83;26.35;;;13.50;99.90;;;;;;4994107;28;20046;-74
2023/06/09 02:30:03;;;;;;;28.92;26.52;;;13.50;99.90;;;;;;5057576;28;20046;-74
2023/06/09 02:32:29;;;;;;;29.83;27.52;;;13.40;99.90;;;;;;4998996;27;20516;-72
2023/06/09 02:34:56;;;;;;;30.77;28.17;;;13.40;99.90;;;;;;5057275;28;20049;-73
2023/06/09 02:37:23;;;;;;;31.40;28.70;;;13.20;99.90;;;;;;4989039;28;20310;-72
2023/06/09 02:39:50;;;;;;;31.20;28.48;;;13.10;99.90;;;;;;5060549;27;20052;-74
2023/06/09 02:42:17;;;;;;;30.88;28.48;;;13.10;99.90;;;;;;5057808;27;20348;-74
2023/06/09 02:44:48;;;;;;;29.65;26.80;;;13.10;99.90;;;;;;5053982;27;20045;-73
2023/06/09 02:47:15;;;;;;;30.75;28.30;;;13.10;99.90;;;;;;5076204;27;20042;-72
2023/06/09 02:49:43;;;;;;;30.13;27.50;;;13.00;99.90;;;;;;5059361;27;20576;-72
2023/06/09 02:52:09;;;;;;;29.67;27.38;;;12.90;99.90;;;;;;5059334;27;20140;-75
2023/06/09 02:54:39;;;;;;;29.30;26.92;;;12.80;99.90;;;;;;5062500;27;20460;-75
2023/06/09 02:57:08;;;;;;;31.85;29.15;;;12.90;99.90;;;;;;5058499;27;20046;-72
2023/06/09 02:59:35;;;;;;;29.60;27.30;;;12.90;99.90;;;;;;5057907;28;20040;-72
2023/06/09 03:02:02;;;;;;;30.00;27.40;;;12.90;99.90;;;;;;5078751;27;20062;-72
2023/06/09 03:04:29;;;;;;;33.25;30.38;;;12.80;99.90;;;;;;5051112;27;20434;-72
2023/06/09 03:06:56;;;;;;;30.83;28.33;;;12.80;99.90;;;;;;5066455;27;20037;-72
2023/06/09 03:09:23;;;;;;;31.25;28.10;;;12.80;99.90;;;;;;5054113;27;20057;-72
2023/06/09 03:11:56;;;;;;;29.63;27.20;;;12.80;99.90;;;;;;5050148;27;20110;-72
2023/06/09 03:14:23;;;;;;;29.98;27.25;;;12.70;99.90;;;;;;5068487;27;20077;-72
2023/06/09 03:16:52;;;;;;;29.13;26.63;;;12.70;99.90;;;;;;4973179;28;20050;-72
2023/06/09 03:19:19;;;;;;;30.17;27.65;;;12.60;99.90;;;;;;5055792;27;20055;-73
2023/06/09 03:21:46;;;;;;;31.00;28.50;;;12.60;99.90;;;;;;5058360;28;20445;-71
2023/06/09 03:24:13;;;;;;;31.88;29.10;;;12.60;99.90;;;;;;5064113;27;20417;-72
2023/06/09 03:26:41;;;;;;;30.83;28.33;;;12.60;99.90;;;;;;5061293;27;20053;-70
2023/06/09 03:29:08;;;;;;;30.73;27.98;;;12.40;99.90;;;;;;5064523;27;20049;-71
2023/06/09 03:31:37;;;;;;;29.77;27.42;;;12.40;99.90;;;;;;5052544;28;20450;-72
2023/06/09 03:34:04;;;;;;;30.77;28.17;;;12.40;99.90;;;;;;5059552;27;20363;-72
2023/06/09 03:36:33;;;;;;;30.33;28.02;;;12.40;99.90;;;;;;5056645;28;20061;-70
2023/06/09 03:39:01;;;;;;;31.58;29.08;;;12.40;99.90;;;;;;5065310;27;20044;-74
2023/06/09 03:41:28;;;;;;;30.50;28.20;;;12.40;99.90;;;;;;5054714;27;20128;-74
2023/06/09 03:43:56;;;;;;;31.73;29.25;;;12.50;99.90;;;;;;5077627;27;20046;-73
2023/06/09 03:46:23;;;;;;;31.02;28.08;;;12.70;99.90;;;;;;5059650;28;20034;-71
2023/06/09 03:48:52;;;;;;;28.30;26.10;;;12.50;99.90;;;;;;5063316;28;20521;-71
2023/06/09 03:51:20;;;;;;;28.83;26.52;;;12.50;99.90;;;;;;5057411;28;20038;-73
2023/06/09 03:53:47;;;;;;;28.67;26.38;;;12.50;99.90;;;;;;5048814;28;20040;-73
2023/06/09 03:56:14;;;;;;;30.63;27.83;;;12.50;99.90;;;;;;5062422;28;20034;-72
2023/06/09 03:58:41;;;;;;;30.05;27.80;;;12.60;99.90;;;;;;5048161;28;20069;-72
2023/06/09 04:01:10;;;;;;;30.13;27.42;;;12.50;99.90;;;;;;5063622;28;20037;-72
2023/06/09 04:03:38;;;;;;;29.42;27.23;;;12.60;99.90;;;;;;5056217;28;20057;-74
2023/06/09 04:06:05;;;;;;;30.15;27.58;;;12.50;99.90;;;;;;5053211;28;20073;-74
2023/06/09 04:08:32;;;;;;;29.85;27.35;;;12.50;99.90;;;;;;5048141;28;20050;-74
2023/06/09 04:10:59;;;;;;;28.92;26.42;;;12.70;99.90;;;;;;4999104;27;20049;-72
2023/06/09 04:13:26;;;;;;;29.60;27.08;;;12.80;99.90;;;;;;5042692;28;20073;-74
2023/06/09 04:15:53;;;;;;;30.00;27.48;;;13.00;99.90;;;;;;5058694;28;20069;-73
2023/06/09 04:18:20;;;;;;;29.77;27.20;;;13.10;99.90;;;;;;4995918;28;20823;-74
2023/06/09 04:20:47;;;;;;;30.70;27.90;;;13.20;99.90;;;;;;5056621;28;20038;-73
2023/06/09 04:23:14;;;;;;;28.92;26.52;;;13.30;99.90;;;;;;5060078;28;20046;-74
2023/06/09 04:25:45;;;;;;;31.65;28.90;;;13.40;99.90;;;;;;5049280;28;20052;-72
2023/06/09 04:28:17;;;;;;;30.80;27.70;;;13.50;99.90;;;;;;5062903;28;20046;-72
2023/06/09 04:30:47;;;;;;;29.13;26.92;;;13.60;99.90;;;;;;5054812;28;21084;-72
2023/06/09 04:33:15;;;;;;;29.77;27.35;;;13.90;99.90;;;;;;5064281;28;20050;-75
2023/06/09 04:35:43;;;;;;;29.95;27.52;;;14.20;99.90;;;;;;5056903;28;20056;-72
2023/06/09 04:38:14;;;;;;;31.90;29.23;;;14.60;99.90;;;;;;5043547;28;20042;-72
2023/06/09 04:40:41;;;;;;;31.35;29.08;;;15.00;99.90;;;;;;5060952;28;20072;-73
2023/06/09 04:43:10;;;;;;;32.60;30.17;;;15.20;99.90;;;;;;4995482;28;20046;-74
2023/06/09 04:45:39;;;;;;;32.60;30.40;;;15.60;99.90;;;;;;5063130;27;20050;-72
2023/06/09 04:48:19;;;;;;;33.72;31.02;;;15.90;99.90;;;;;;5063422;27;20199;-73
2023/06/09 04:50:47;;;;;;;32.83;30.63;;;16.30;99.90;;;;;;5068581;27;20056;-73
2023/06/09 04:53:18;;;;;;;34.45;31.95;;;16.60;99.90;;;;;;5057757;27;20710;-73
2023/06/09 04:55:52;;;;;;;33.85;31.25;;;16.90;99.90;;;;;;5064964;27;20049;-73
2023/06/09 04:58:18;;;;;;;33.85;31.35;;;17.00;99.90;;;;;;5018558;27;20330;-72
2023/06/09 05:00:45;;;;;;;32.42;30.15;;;17.00;99.90;;;;;;5053725;27;20045;-74
2023/06/09 05:03:17;;;;;;;33.08;30.63;;;17.30;99.90;;;;;;5063888;27;20053;-73
2023/06/09 05:05:46;;;;;;;31.25;29.05;;;17.50;99.90;;;;;;5059924;27;20673;-73
2023/06/09 05:08:13;;;;;;;29.65;27.33;;;17.70;99.90;;;;;;5069224;27;20174;-72
2023/06/09 05:10:41;;;;;;;30.17;28.02;;;17.90;99.90;;;;;;5057127;27;20053;-71
2023/06/09 05:13:08;;;;;;;29.38;27.27;;;18.10;99.90;;;;;;5017465;27;20269;-72
2023/06/09 05:15:35;;;;;;;29.15;27.25;;;18.30;99.90;;;;;;5056939;27;21148;-72
2023/06/09 05:18:03;;;;;;;30.02;27.83;;;18.40;99.90;;;;;;5073247;27;20031;-73
2023/06/09 05:20:30;;;;;;;28.98;26.88;;;18.40;99.90;;;;;;5041761;28;20463;-73
2023/06/09 05:22:57;;;;;;;30.67;28.50;;;18.60;99.90;;;;;;5063555;27;20137;-72
2023/06/09 05:25:25;;;;;;;28.55;26.63;;;18.80;99.90;;;;;;5064590;27;20042;-74
2023/06/09 05:27:52;;;;;;;29.75;27.67;;;18.70;99.90;;;;;;5065593;27;20046;-74
2023/06/09 05:30:19;;;;;;;29.65;27.60;;;18.70;99.90;;;;;;5066622;27;20439;-73
2023/06/09 05:32:45;;;;;;;29.95;27.60;;;18.80;99.90;;;;;;5061670;27;20762;-73
2023/06/09 05:35:12;;;;;;;28.65;26.67;;;19.00;99.90;;;;;;5064597;27;20053;-73
2023/06/09 05:37:51;;;;;;;29.90;27.65;;;19.10;99.90;;;;;;5054335;28;20513;-76
2023/06/09 05:40:22;;;;;;;29.58;27.33;;;19.10;99.90;;;;;;5043445;28;20042;-74
2023/06/09 05:42:49;;;;;;;30.38;28.10;;;19.00;99.90;;;;;;4998440;27;20417;-73
2023/06/09 05:45:16;;;;;;;29.00;26.88;;;19.20;99.90;;;;;;5003147;27;20046;-72
2023/06/09 05:47:43;;;;;;;28.95;27.05;;;19.30;99.90;;;;;;4990769;27;20038;-73
2023/06/09 05:50:10;;;;;;;29.80;27.75;;;19.40;99.90;;;;;;5066104;27;20053;-74
2023/06/09 05:52:37;;;;;;;29.17;27.25;;;19.40;99.90;;;;;;5071961;27;20489;-74
2023/06/09 05:55:04;;;;;;;29.90;27.83;;;19.70;99.90;;;;;;5025282;27;20205;-72
2023/06/09 05:57:31;;;;;;;29.48;27.48;;;19.60;99.90;;;;;;5018152;27;20061;-73
2023/06/09 05:59:58;;;;;;;30.55;28.55;;;19.90;99.90;;;;;;5016767;27;20024;-75
2023/06/09 06:02:25;;;;;;;29.27;27.38;;;19.90;99.90;;;;;;5022734;27;20053;-73
2023/06/09 06:04:52;;;;;;;33.60;31.40;;;19.80;99.90;;;;;;5027702;27;20044;-72
2023/06/09 06:07:20;;;;;;;32.00;29.95;;;19.80;99.90;;;;;;5075755;27;20460;-70
2023/06/09 06:09:47;;;;;;;32.75;30.55;;;20.00;99.90;;;;;;5066600;27;20040;-71
2023/06/09 06:12:14;;;;;;;33.60;31.17;;;20.40;99.90;;;;;;4999670;27;20140;-73
2023/06/09 06:14:41;;;;;;;33.47;31.08;;;20.20;99.90;;;;;;4998337;27;20060;-74
2023/06/09 06:17:08;;;;;;;33.55;31.45;;;20.40;99.90;;;;;;5067214;27;20529;-74
2023/06/09 06:19:35;;;;;;;34.40;32.00;;;20.40;99.90;;;;;;5012378;27;20050;-72
2023/06/09 06:22:02;;;;;;;34.95;32.65;;;20.40;99.90;;;;;;5058407;27;20050;-72
2023/06/09 06:24:28;;;;;;;35.25;32.85;;;20.10;99.90;;;;;;5000580;27;20383;-74
2023/06/09 06:26:55;;;;;;;34.45;32.15;;;20.60;99.90;;;;;;4992815;27;20099;-72
2023/06/09 06:29:22;;;;;;;35.03;32.75;;;20.80;99.90;;;;;;5065079;27;20091;-72
2023/06/09 06:31:49;;;;;;;36.13;33.92;;;20.60;99.90;;;;;;4991276;27;20115;-72
2023/06/09 06:34:15;;;;;;;35.85;33.65;;;20.60;99.90;;;;;;5014513;27;20433;-71
2023/06/09 06:36:42;;;;;;;36.05;33.85;;;20.70;99.90;;;;;;5000903;27;20449;-72
2023/06/09 06:39:11;;;;;;;36.33;34.13;;;20.60;99.90;;;;;;5079030;27;20056;-75
2023/06/09 06:41:38;;;;;;;37.13;34.58;;;20.90;99.90;;;;;;5066889;27;20035;-73
2023/06/09 06:44:05;;;;;;;37.17;34.88;;;20.70;99.90;;;;;;5005540;27;20041;-72
2023/06/09 06:46:32;;;;;;;35.28;33.17;;;21.00;99.90;;;;;;5059651;27;20057;-74
2023/06/09 06:49:00;;;;;;;38.40;36.22;;;21.50;99.90;;;;;;5067487;27;20079;-72
2023/06/09 06:51:27;;;;;;;39.33;36.70;;;21.50;99.90;;;;;;4993007;27;20401;-72
2023/06/09 06:53:53;;;;;;;39.10;35.90;;;21.10;99.90;;;;;;5008851;27;20138;-73
2023/06/09 06:56:22;;;;;;;38.35;35.83;;;21.10;99.90;;;;;;4984631;27;20049;-72
2023/06/09 06:58:49;;;;;;;36.47;34.28;;;21.20;99.90;;;;;;5014934;27;20393;-73
2023/06/09 07:01:17;;;;;;;36.95;34.85;;;21.40;99.90;;;;;;5046806;28;20412;-73
2023/06/09 07:03:45;;;;;;;36.80;34.45;;;21.60;99.90;;;;;;5032499;27;20032;-72
2023/06/09 07:06:12;;;;;;;36.78;34.70;;;21.80;99.90;;;;;;5065946;28;20413;-71
2023/06/09 07:08:39;;;;;;;37.35;35.05;;;21.80;99.90;;;;;;5002741;27;20055;-72
2023/06/09 07:11:06;;;;;;;37.03;34.63;;;21.80;99.90;;;;;;5069785;27;20196;-73
2023/06/09 07:13:33;;;;;;;35.80;33.20;;;21.70;99.90;;;;;;5063723;27;20050;-72
2023/06/09 07:16:00;;;;;;;37.38;34.97;;;21.70;99.90;;;;;;5049913;27;20041;-74
2023/06/09 07:18:27;;;;;;;35.60;33.20;;;21.90;99.90;;;;;;5030029;22;20056;-75
2023/06/09 07:20:55;;;;;;;35.90;33.80;;;21.80;99.90;;;;;;5054008;28;20052;-75
2023/06/09 07:23:22;;;;;;;37.03;34.83;;;21.50;99.90;;;;;;5037884;28;20032;-75
2023/06/09 07:25:48;;;;;;;38.58;36.28;;;21.30;99.90;;;;;;5034466;28;20498;-75
2023/06/09 07:28:15;;;;;;;38.00;35.47;;;21.20;99.90;;;;;;5059911;28;20047;-75
2023/06/09 07:30:42;;;;;;;38.70;36.35;;;21.30;99.90;;;;;;5048239;28;20429;-75
2023/06/09 07:33:09;;;;;;;39.05;36.50;;;21.50;99.90;;;;;;5049805;28;20055;-75
2023/06/09 07:35:36;;;;;;;39.15;36.80;;;21.40;99.90;;;;;;5041199;28;20059;-75
2023/06/09 07:38:03;;;;;;;40.15;37.53;;;21.40;99.90;;;;;;5056549;28;20040;-75
2023/06/09 07:40:30;;;;;;;39.03;36.67;;;21.20;99.90;;;;;;5036122;28;20076;-74
2023/06/09 07:42:57;;;;;;;37.35;35.05;;;21.20;99.90;;;;;;5038595;28;20129;-75
2023/06/09 07:45:24;;;;;;;37.75;35.35;;;21.60;99.90;;;;;;5057136;28;20148;-75
2023/06/09 07:47:50;;;;;;;38.45;36.25;;;22.10;99.90;;;;;;5037628;28;20067;-75
2023/06/09 07:50:17;;;;;;;37.00;34.70;;;22.30;99.90;;;;;;5058279;28;20589;-75
2023/06/09 07:52:44;;;;;;;38.47;36.08;;;22.10;99.90;;;;;;5053433;28;20143;-75
2023/06/09 07:55:11;;;;;;;38.78;36.60;;;21.90;99.90;;;;;;5059036;28;20046;-75
2023/06/09 07:57:42;;;;;;;40.10;37.63;;;22.40;99.90;;;;;;5056440;28;20052;-75
2023/06/09 08:00:10;;;;;;;39.63;37.33;;;23.00;99.90;;;;;;5042282;28;20048;-75
2023/06/09 08:02:42;;;;;;;38.83;36.40;;;23.00;99.90;;;;;;5037177;28;20508;-75
2023/06/09 08:05:18;;;;;;;39.75;37.35;;;22.60;99.90;;;;;;5039554;28;20048;-75
2023/06/09 08:07:45;;;;;;;39.85;37.45;;;22.70;99.90;;;;;;5055100;28;20711;-75
2023/06/09 08:10:12;;;;;;;40.42;38.03;;;23.10;99.90;;;;;;5039068;28;20033;-75
2023/06/09 08:12:39;;;;;;;40.55;38.05;;;23.00;99.90;;;;;;5055562;28;20044;-76
2023/06/09 08:15:06;;;;;;;41.95;39.45;;;23.00;99.90;;;;;;5041937;28;20101;-75
2023/06/09 08:17:33;;;;;;;40.55;38.05;;;22.90;99.90;;;;;;5058833;28;20072;-75
2023/06/09 08:20:00;;;;;;;41.72;39.03;;;22.60;99.90;;;;;;5064559;28;20251;-75
2023/06/09 08:22:27;;;;;;;42.05;39.55;;;22.60;99.90;;;;;;5064889;28;20451;-75
2023/06/09 08:24:55;;;;;;;40.55;38.10;;;22.80;99.90;;;;;;5072044;28;20055;-75
2023/06/09 08:27:21;;;;;;;42.92;40.22;;;23.20;99.90;;;;;;5049945;28;20037;-75
2023/06/09 08:29:51;;;;;;;42.75;40.05;;;23.00;99.90;;;;;;5065127;28;20033;-75
2023/06/09 08:32:18;;;;;;;41.53;38.83;;;22.70;99.90;;;;;;5068385;28;20046;-75
2023/06/09 08:34:45;;;;;;;41.42;38.67;;;23.30;99.90;;;;;;5067175;28;20127;-75
2023/06/09 08:37:12;;;;;;;43.33;40.83;;;23.80;99.90;;;;;;5064608;28;20719;-75
2023/06/09 08:39:39;;;;;;;44.03;41.33;;;23.10;99.90;;;;;;5067705;28;20070;-74
2023/06/09 08:42:25;;;;;;;42.55;40.15;;;23.20;99.90;;;;;;5065033;28;20233;-75
2023/06/09 08:45:02;;;;;;;42.55;39.72;;;23.40;99.90;;;;;;5050830;28;20055;-74
2023/06/09 08:47:34;;;;;;;43.33;40.83;;;23.50;99.90;;;;;;5054736;28;20083;-74
2023/06/09 08:50:02;;;;;;;43.88;41.28;;;22.90;99.90;;;;;;5066253;28;22459;-74
2023/06/09 08:52:30;;;;;;;43.92;41.00;;;23.10;99.90;;;;;;5069883;28;20114;-74
2023/06/09 08:54:59;;;;;;;43.70;41.20;;;23.70;99.90;;;;;;5044804;28;20400;-74
2023/06/09 08:57:26;;;;;;;44.80;42.22;;;24.00;99.90;;;;;;5065231;28;20071;-74
2023/06/09 08:59:53;;;;;;;43.83;41.22;;;24.10;99.90;;;;;;5066791;28;20210;-74
2023/06/09 09:02:20;;;;;;;45.17;42.58;;;23.80;99.90;;;;;;5068865;28;20470;-74
2023/06/09 09:04:49;;;;;;;45.38;42.88;;;23.60;99.90;;;;;;5052202;28;20086;-74
2023/06/09 09:07:16;;;;;;;45.38;42.78;;;23.70;99.90;;;;;;5044266;28;20032;-74
2023/06/09 09:09:42;;;;;;;45.65;43.15;;;23.70;99.90;;;;;;5023739;28;20148;-74
2023/06/09 09:12:13;;;;;;;45.85;43.22;;;24.00;99.90;;;;;;5067747;28;20037;-74
2023/06/09 09:14:43;;;;;;;46.08;43.58;;;24.00;99.90;;;;;;5071068;28;20497;-74
2023/06/09 09:17:11;;;;;;;45.47;42.85;;;23.90;99.90;;;;;;5056412;28;20044;-75
2023/06/09 09:19:45;;;;;;;46.85;44.15;;;24.20;99.90;;;;;;5054833;28;20036;-74
2023/06/09 09:22:12;;;;;;;45.25;42.72;;;24.20;99.90;;;;;;5044344;28;20140;-74
2023/06/09 09:24:47;;;;;;;45.88;43.38;;;23.90;99.90;;;;;;5048805;28;20545;-75
2023/06/09 09:27:19;;;;;;;44.55;41.70;;;23.80;99.90;;;;;;5052217;28;20032;-74
2023/06/09 09:29:46;;;;;;;44.28;41.55;;;24.20;99.90;;;;;;5046462;28;20056;-74
2023/06/09 09:32:13;;;;;;;46.95;44.40;;;24.30;99.90;;;;;;5048336;28;20048;-75
2023/06/09 09:34:42;;;;;;;46.75;44.05;;;24.40;99.90;;;;;;5063174;28;20040;-74
2023/06/09 09:37:16;;;;;;;45.38;42.72;;;24.60;99.90;;;;;;5069587;28;20561;-74
2023/06/09 09:39:50;;;;;;;48.90;45.83;;;24.00;99.90;;;;;;5047321;28;20514;-74
2023/06/09 09:42:17;;;;;;;47.33;44.45;;;23.90;99.90;;;;;;5045114;28;20516;-74
2023/06/09 09:44:47;;;;;;;47.67;44.80;;;23.90;99.90;;;;;;5067458;28;20123;-74
2023/06/09 09:47:18;;;;;;;50.00;46.92;;;24.50;99.90;;;;;;5067574;28;20105;-74
2023/06/09 09:50:00;;;;;;;49.08;46.38;;;25.10;99.90;;;;;;5058297;28;20375;-75
2023/06/09 09:52:28;;;;;;;46.67;44.00;;;25.00;99.90;;;;;;5047032;28;20110;-75
2023/06/09 09:54:58;;;;;;;46.83;44.38;;;24.60;99.90;;;;;;5065213;28;20352;-75
2023/06/09 09:57:29;;;;;;;47.03;44.22;;;24.40;99.90;;;;;;5064340;28;20090;-75
2023/06/09 09:59:59;;;;;;;53.28;50.08;;;24.70;99.90;;;;;;5060512;28;20044;-76
2023/06/09 10:02:29;;;;;;;49.70;47.00;;;24.90;99.90;;;;;;5063249;28;20072;-75
2023/06/09 10:05:03;;;;;;;49.53;46.88;;;25.10;99.90;;;;;;5047629;28;20040;-76
2023/06/09 10:07:34;;;;;;;51.67;48.55;;;25.40;99.90;;;;;;5067013;28;20055;-77
2023/06/09 10:10:02;;;;;;;46.60;44.00;;;25.50;99.90;;;;;;5047140;28;20039;-77
2023/06/09 10:12:29;;;;;;;48.90;46.13;;;25.60;99.90;;;;;;5053204;28;20189;-77
2023/06/09 10:14:56;;;;;;;47.90;44.90;;;25.70;99.90;;;;;;5046713;28;20047;-77
2023/06/09 10:17:25;;;;;;;48.47;45.88;;;25.80;99.90;;;;;;5065148;28;20294;-76
2023/06/09 10:19:52;;;;;;;51.08;47.78;;;26.20;99.90;;;;;;5062542;28;20040;-77
2023/06/09 10:22:19;;;;;;;51.67;48.70;;;26.10;99.90;;;;;;5048745;28;20032;-76
2023/06/09 10:24:47;;;;;;;51.25;48.40;;;26.10;99.90;;;;;;5068642;28;20040;-76
2023/06/09 10:27:17;;;;;;;51.28;48.42;;;25.40;99.90;;;;;;5046720;28;20429;-77
2023/06/09 10:29:47;;;;;;;52.08;49.10;;;25.60;99.90;;;;;;5047538;28;20063;-77
2023/06/09 10:32:14;;;;;;;51.00;48.17;;;25.40;99.90;;;;;;5045265;28;20163;-77
2023/06/09 10:34:46;;;;;;;52.35;48.90;;;25.40;99.90;;;;;;5054149;28;20044;-77
2023/06/09 10:37:26;;;;;;;51.47;48.58;;;25.50;99.90;;;;;;5035541;28;20530;-76
2023/06/09 10:40:08;;;;;;;52.70;49.85;;;25.30;99.90;;;;;;5063884;28;20220;-75
2023/06/09 10:43:00;;;;;;;52.08;49.08;;;25.70;99.90;;;;;;5047093;28;20118;-75
2023/06/09 10:45:50;;;;;;;50.45;47.75;;;25.40;99.90;;;;;;5059777;28;20041;-75
2023/06/09 10:48:44;;;;;;;53.25;50.30;;;25.60;99.90;;;;;;5067997;28;20306;-78
2023/06/09 10:51:32;;;;;;;53.50;50.45;;;25.90;99.90;;;;;;5066316;28;20506;-75
2023/06/09 10:54:12;;;;;;;52.38;49.42;;;25.90;99.90;;;;;;5048013;28;20106;-75
2023/06/09 10:56:45;;;;;;;50.55;47.75;;;25.70;99.90;;;;;;5072001;28;20551;-76
2023/06/09 10:59:25;;;;;;;51.08;48.15;;;25.90;99.90;;;;;;5065043;28;20040;-75
2023/06/09 11:02:01;;;;;;;53.30;50.40;;;26.20;99.90;;;;;;5045483;28;20036;-75
2023/06/09 11:07:12;;;;;;;52.35;49.28;;;26.60;99.90;;;;;;5073553;28;20059;-75
2023/06/09 11:09:40;;;;;;;51.08;48.22;;;26.50;99.90;;;;;;5045672;28;20220;-76
2023/06/09 11:12:20;;;;;;;49.90;46.92;;;26.80;99.90;;;;;;5050858;28;20039;-75
2023/06/09 11:14:58;;;;;;;52.30;49.08;;;26.70;99.90;;;;;;5068125;28;20048;-75
2023/06/09 11:17:42;;;;;;;52.35;49.35;;;27.00;99.90;;;;;;5066078;28;20043;-74
2023/06/09 11:20:11;;;;;;;51.20;48.22;;;26.90;99.90;;;;;;5045741;28;20546;-75
2023/06/09 11:22:41;;;;;;;51.97;48.90;;;26.50;99.90;;;;;;5069202;28;20355;-76
2023/06/09 11:25:30;;;;;;;53.10;50.00;;;26.30;99.90;;;;;;5048876;28;20554;-76
2023/06/09 11:27:57;;;;;;;53.42;50.55;;;26.10;99.90;;;;;;5030856;28;20059;-76
2023/06/09 11:30:33;;;;;;;51.95;48.75;;;26.30;99.90;;;;;;5030215;28;20639;-76
2023/06/09 11:33:02;;;;;;;51.80;48.55;;;26.40;99.90;;;;;;5062940;28;20500;-76
2023/06/09 11:35:34;;;;;;;52.63;49.53;;;26.70;99.90;;;;;;5044794;28;20606;-78
2023/06/09 11:38:05;;;;;;;54.25;51.08;;;26.80;99.90;;;;;;5044278;28;20040;-76
2023/06/09 11:40:34;;;;;;;52.85;49.88;;;26.80;99.90;;;;;;5061113;28;20545;-76
2023/06/09 11:43:02;;;;;;;51.85;48.95;;;27.00;99.90;;;;;;5066686;28;20119;-76
2023/06/09 11:45:30;;;;;;;52.40;49.03;;;27.30;99.90;;;;;;5067447;28;20047;-76
2023/06/09 11:47:59;;;;;;;50.55;47.67;;;27.50;99.90;;;;;;5045724;28;20531;-76
2023/06/09 11:50:44;;;;;;;52.75;49.67;;;28.10;99.90;;;;;;5045359;28;20075;-76
2023/06/09 11:53:15;;;;;;;51.97;48.97;;;27.40;99.90;;;;;;5065440;28;20420;-75
2023/06/09 11:55:43;;;;;;;48.22;45.40;;;26.80;99.90;;;;;;5031076;28;20066;-76
2023/06/09 11:58:12;;;;;;;45.65;42.83;;;26.80;99.90;;;;;;5064145;28;20729;-76
2023/06/09 12:00:41;;;;;;;44.08;41.58;;;26.70;99.90;;;;;;5034780;28;20545;-78
2023/06/09 12:03:09;;;;;;;47.10;44.40;;;26.30;99.90;;;;;;5064200;28;20156;-76
2023/06/09 12:05:37;;;;;;;53.95;50.85;;;26.10;99.90;;;;;;5051947;28;20048;-75
2023/06/09 12:08:10;;;;;;;51.67;48.67;;;26.00;99.90;;;;;;5057671;28;20212;-76
2023/06/09 12:10:37;;;;;;;51.35;48.42;;;26.40;99.90;;;;;;5072126;28;20044;-75
2023/06/09 12:13:04;;;;;;;44.88;42.30;;;26.90;99.90;;;;;;5046099;28;20307;-76
2023/06/09 12:15:31;;;;;;;46.55;43.58;;;27.10;99.90;;;;;;5074209;28;20619;-75
2023/06/09 12:17:59;;;;;;;44.55;41.75;;;27.00;99.90;;;;;;5051768;28;20532;-75
2023/06/09 12:20:33;;;;;;;43.22;40.42;;;26.70;99.90;;;;;;5048778;28;20118;-76
2023/06/09 12:23:06;;;;;;;43.33;40.55;;;26.40;99.90;;;;;;5060830;28;20051;-77
2023/06/09 12:25:35;;;;;;;44.95;42.20;;;26.20;99.90;;;;;;5067477;28;20116;-76
2023/06/09 12:28:17;;;;;;;50.67;47.75;;;26.40;99.90;;;;;;5065176;28;20142;-76
2023/06/09 12:30:47;;;;;;;53.90;50.70;;;26.10;99.90;;;;;;5052263;28;20149;-78
2023/06/09 12:33:23;;;;;;;53.35;50.17;;;26.20;99.90;;;;;;5047815;28;20339;-75
2023/06/09 12:35:53;;;;;;;51.40;48.25;;;26.70;99.90;;;;;;5064827;28;20057;-75
2023/06/09 12:38:25;;;;;;;46.08;43.08;;;26.90;99.90;;;;;;5072921;28;20489;-75
2023/06/09 12:41:02;;;;;;;46.70;44.00;;;26.70;99.90;;;;;;5049498;28;20140;-76
2023/06/09 12:43:42;;;;;;;46.67;43.47;;;26.50;99.90;;;;;;5052003;28;20071;-77